Time;durP1;ratioP1;P1;durP2;ratioP2;P2;SDS_P1;SDS_P2;PMS_P1;PMS_P2;Temp;Humidity;BMP_temperature;BMP_pressure;BME280_temperature;BME280_humidity;BME280_pressure;Samples;Min_cycle;Max_cycle;Signal;HPM_P1;HPM_P2
2021/10/09 00:01:24;;;;;;;11.70;7.47;;;;;;;3.20;nan;102687.53;4968043;28;20081;-79
2021/10/09 00:03:51;;;;;;;13.93;7.40;;;;;;;3.11;nan;102689.72;4967302;28;20038;-80
2021/10/09 00:06:18;;;;;;;15.83;7.80;;;;;;;3.14;nan;102687.25;4965140;28;20046;-80
2021/10/09 00:08:46;;;;;;;14.77;8.10;;;;;;;3.16;nan;102690.81;4964236;28;20072;-85
2021/10/09 00:11:22;;;;;;;14.13;8.23;;;;;;;3.15;nan;102688.16;4967711;28;20049;-83
2021/10/09 00:13:49;;;;;;;13.93;9.03;;;;;;;3.10;nan;102696.66;4961828;28;20135;-79
2021/10/09 00:16:16;;;;;;;14.50;8.03;;;;;;;3.10;nan;102695.78;4982829;28;20172;-80
2021/10/09 00:18:43;;;;;;;12.33;7.80;;;;;;;3.05;nan;102693.00;4984501;28;20072;-80
2021/10/09 00:21:10;;;;;;;15.10;7.87;;;;;;;3.05;nan;102697.31;4984310;28;20047;-80
2021/10/09 00:23:37;;;;;;;22.00;9.10;;;;;;;3.04;nan;102706.00;4956533;28;20042;-80
2021/10/09 00:26:04;;;;;;;14.17;7.60;;;;;;;2.96;nan;102703.03;4967807;28;20077;-80
2021/10/09 00:28:31;;;;;;;13.93;7.33;;;;;;;3.02;nan;102705.00;4969279;28;20034;-80
2021/10/09 00:30:58;;;;;;;13.63;7.40;;;;;;;3.04;nan;102700.78;4997399;28;20046;-80
2021/10/09 00:33:25;;;;;;;14.47;7.77;;;;;;;2.97;nan;102706.53;4967080;28;20060;-79
2021/10/09 00:35:52;;;;;;;14.77;8.23;;;;;;;2.99;nan;102703.16;4988683;28;20033;-80
2021/10/09 00:38:18;;;;;;;14.30;8.20;;;;;;;2.98;nan;102701.38;4966618;28;20626;-80
2021/10/09 00:40:45;;;;;;;14.13;8.23;;;;;;;2.94;nan;102709.00;4991262;28;20041;-80
2021/10/09 00:43:12;;;;;;;13.50;9.30;;;;;;;2.97;nan;102704.81;4975837;28;20041;-80
2021/10/09 00:45:38;;;;;;;12.03;7.43;;;;;;;3.00;nan;102706.66;4991269;28;20046;-79
2021/10/09 00:48:05;;;;;;;13.87;8.03;;;;;;;2.98;nan;102703.09;4981978;28;20559;-80
2021/10/09 00:50:32;;;;;;;15.80;8.43;;;;;;;2.91;nan;102709.78;4984734;28;20058;-79
2021/10/09 00:52:59;;;;;;;14.33;7.80;;;;;;;2.94;nan;102715.13;4966594;28;20065;-79
2021/10/09 00:55:26;;;;;;;14.40;7.87;;;;;;;2.94;nan;102704.66;4976324;28;20038;-80
2021/10/09 00:57:54;;;;;;;12.70;7.50;;;;;;;2.92;nan;102706.34;4973902;28;20092;-79
2021/10/09 01:00:20;;;;;;;14.70;7.70;;;;;;;2.91;nan;102704.56;4971880;28;20116;-80
2021/10/09 01:02:49;;;;;;;13.03;7.90;;;;;;;2.94;nan;102706.38;4962906;28;20030;-79
2021/10/09 01:05:16;;;;;;;14.07;7.73;;;;;;;2.80;nan;102709.31;4972164;28;20973;-79
2021/10/09 01:07:42;;;;;;;16.13;8.60;;;;;;;2.85;nan;102704.28;4976362;28;20042;-79
2021/10/09 01:10:09;;;;;;;16.07;8.30;;;;;;;2.84;nan;102692.06;4980986;28;20039;-79
2021/10/09 01:12:36;;;;;;;14.13;8.17;;;;;;;2.81;nan;102698.03;4969470;28;21382;-79
2021/10/09 01:15:16;;;;;;;15.10;8.33;;;;;;;2.90;nan;102700.16;4949801;28;20038;-79
2021/10/09 01:17:43;;;;;;;16.20;7.80;;;;;;;2.84;nan;102697.28;4984677;28;20037;-79
2021/10/09 01:20:11;;;;;;;13.00;7.73;;;;;;;2.79;nan;102699.69;4959223;28;20057;-79
2021/10/09 01:22:38;;;;;;;10.97;7.27;;;;;;;2.82;nan;102702.44;4973748;28;20046;-79
2021/10/09 01:25:06;;;;;;;12.20;8.07;;;;;;;2.82;nan;102693.72;4946875;28;20034;-79
2021/10/09 01:27:33;;;;;;;20.53;8.73;;;;;;;2.71;nan;102695.88;4970026;28;20045;-80
2021/10/09 01:30:01;;;;;;;12.93;8.10;;;;;;;2.79;nan;102704.03;4962227;28;20100;-79
2021/10/09 01:32:27;;;;;;;13.97;8.17;;;;;;;2.73;nan;102694.19;4960671;28;20038;-78
2021/10/09 01:34:54;;;;;;;12.57;7.83;;;;;;;2.81;nan;102694.53;4978702;28;20088;-79
2021/10/09 01:37:21;;;;;;;16.10;8.77;;;;;;;2.72;nan;102692.41;4962865;28;20046;-79
2021/10/09 01:39:48;;;;;;;19.23;9.87;;;;;;;2.81;nan;102697.16;4960854;28;20125;-79
2021/10/09 01:42:15;;;;;;;13.07;7.97;;;;;;;2.70;nan;102693.19;4976776;28;20042;-79
2021/10/09 01:44:42;;;;;;;15.57;9.10;;;;;;;2.73;nan;102699.41;4972053;28;20319;-79
2021/10/09 01:47:08;;;;;;;18.23;9.20;;;;;;;2.73;nan;102698.53;4954752;28;21598;-79
2021/10/09 01:49:35;;;;;;;16.47;9.00;;;;;;;2.72;nan;102687.19;4948569;28;20042;-79
2021/10/09 01:52:02;;;;;;;11.53;8.40;;;;;;;2.63;nan;102697.25;4981308;28;20064;-79
2021/10/09 01:54:29;;;;;;;13.87;8.47;;;;;;;2.61;nan;102692.78;4979761;28;20173;-79
2021/10/09 01:56:56;;;;;;;17.17;8.83;;;;;;;2.63;nan;102689.41;4979653;28;20040;-78
2021/10/09 01:59:22;;;;;;;14.53;9.23;;;;;;;2.68;nan;102693.09;4949153;28;20050;-79
2021/10/09 02:01:49;;;;;;;16.07;8.50;;;;;;;2.61;nan;102698.00;4983046;28;20105;-78
2021/10/09 02:04:16;;;;;;;15.50;9.07;;;;;;;2.69;nan;102692.28;4985067;28;20070;-79
2021/10/09 02:06:43;;;;;;;14.63;9.90;;;;;;;2.73;nan;102688.97;4979109;28;20444;-79
2021/10/09 02:09:15;;;;;;;13.47;8.80;;;;;;;2.67;nan;102693.91;4987667;28;20042;-79
2021/10/09 02:11:46;;;;;;;12.77;8.50;;;;;;;2.66;nan;102694.75;4965474;28;20045;-79
2021/10/09 02:14:25;;;;;;;17.63;8.70;;;;;;;2.69;nan;102696.59;4958281;28;20039;-79
2021/10/09 02:27:56;;;;;;;13.60;8.87;;;;;;;2.59;nan;102690.09;4976897;28;20106;-79
2021/10/09 02:30:24;;;;;;;17.23;9.43;;;;;;;2.71;nan;102682.81;4945172;28;20035;-80
2021/10/09 02:32:51;;;;;;;19.73;10.63;;;;;;;2.76;nan;102683.00;4970976;28;20031;-79
2021/10/09 02:35:18;;;;;;;17.30;9.70;;;;;;;2.66;nan;102686.94;4938260;28;20051;-79
2021/10/09 02:37:44;;;;;;;16.17;9.50;;;;;;;2.71;nan;102685.41;4982928;28;20049;-79
2021/10/09 02:40:12;;;;;;;17.83;9.77;;;;;;;2.57;nan;102683.91;4961622;28;20031;-79
2021/10/09 02:42:38;;;;;;;16.80;9.53;;;;;;;2.53;nan;102682.00;4960049;28;20046;-79
2021/10/09 02:45:06;;;;;;;16.13;9.47;;;;;;;2.63;nan;102680.69;4976117;28;20423;-80
2021/10/09 02:47:32;;;;;;;21.73;11.07;;;;;;;2.63;nan;102684.19;4965419;28;20122;-79
2021/10/09 02:49:59;;;;;;;16.27;9.83;;;;;;;2.59;nan;102681.34;4978651;28;20096;-79
2021/10/09 02:52:26;;;;;;;15.03;9.37;;;;;;;2.54;nan;102684.69;4973554;28;20423;-79
2021/10/09 02:54:53;;;;;;;16.23;10.07;;;;;;;2.50;nan;102685.34;4965194;28;20419;-79
2021/10/09 02:57:19;;;;;;;17.77;9.10;;;;;;;2.57;nan;102683.91;5003209;28;20069;-79
2021/10/09 02:59:46;;;;;;;15.60;9.43;;;;;;;2.57;nan;102689.13;4992715;28;20782;-80
2021/10/09 03:02:13;;;;;;;14.47;9.43;;;;;;;2.60;nan;102683.16;4976947;28;20546;-79
2021/10/09 03:04:39;;;;;;;18.10;11.10;;;;;;;2.57;nan;102683.91;4974963;28;20041;-79
2021/10/09 03:07:07;;;;;;;17.70;10.83;;;;;;;2.53;nan;102689.84;4986335;28;20100;-79
2021/10/09 03:09:33;;;;;;;17.93;10.63;;;;;;;2.46;nan;102690.38;4995655;28;20065;-80
2021/10/09 03:12:00;;;;;;;16.77;9.97;;;;;;;2.43;nan;102693.72;4983657;28;20688;-79
2021/10/09 03:14:27;;;;;;;17.33;10.43;;;;;;;2.47;nan;102685.22;4961114;28;20507;-79
2021/10/09 03:16:55;;;;;;;19.13;9.83;;;;;;;2.38;nan;102695.25;4979306;28;20049;-79
2021/10/09 03:19:21;;;;;;;19.23;10.47;;;;;;;2.37;nan;102701.28;4964135;28;20037;-79
2021/10/09 03:21:48;;;;;;;16.47;9.80;;;;;;;2.39;nan;102706.56;4975417;28;20069;-79
2021/10/09 03:24:15;;;;;;;17.80;10.13;;;;;;;2.41;nan;102700.59;4969536;28;20142;-81
2021/10/09 03:26:42;;;;;;;18.83;10.23;;;;;;;2.40;nan;102700.53;4956294;28;20525;-79
2021/10/09 03:29:08;;;;;;;17.97;10.10;;;;;;;2.34;nan;102702.84;4977482;28;20524;-79
2021/10/09 03:31:35;;;;;;;19.97;9.77;;;;;;;2.39;nan;102707.47;4964449;28;20096;-79
2021/10/09 03:34:02;;;;;;;16.87;10.53;;;;;;;2.40;nan;102706.63;5005213;28;20034;-80
2021/10/09 03:36:29;;;;;;;17.30;10.33;;;;;;;2.40;nan;102703.13;4960649;28;20042;-79
2021/10/09 03:38:56;;;;;;;19.07;9.43;;;;;;;2.37;nan;102709.13;4966289;28;20046;-80
2021/10/09 03:41:22;;;;;;;18.20;10.33;;;;;;;2.35;nan;102705.50;4977321;28;20046;-80
2021/10/09 03:43:49;;;;;;;20.67;11.37;;;;;;;2.39;nan;102709.19;4971984;28;20683;-80
2021/10/09 03:46:24;;;;;;;16.90;10.40;;;;;;;2.32;nan;102720.16;4953030;28;20081;-80
2021/10/09 03:54:09;;;;;;;22.07;12.53;;;;;;;2.36;nan;102712.53;4974373;28;20053;-79
2021/10/09 03:56:36;;;;;;;17.33;11.00;;;;;;;2.33;nan;102709.78;4964845;28;20066;-79
2021/10/09 03:59:05;;;;;;;16.47;9.73;;;;;;;2.28;nan;102718.25;4968616;28;20125;-80
2021/10/09 04:01:33;;;;;;;17.73;9.70;;;;;;;2.22;nan;102717.13;4965942;28;20048;-79
2021/10/09 04:03:59;;;;;;;16.73;9.23;;;;;;;2.12;nan;102722.72;4987582;28;20035;-79
2021/10/09 04:06:26;;;;;;;21.13;10.90;;;;;;;2.15;nan;102728.06;4972458;28;20136;-79
2021/10/09 04:08:53;;;;;;;18.57;9.57;;;;;;;2.12;nan;102727.94;4960828;28;20089;-79
2021/10/09 04:11:20;;;;;;;19.40;10.93;;;;;;;2.14;nan;102717.59;4990969;28;20366;-79
2021/10/09 04:13:46;;;;;;;17.57;10.83;;;;;;;2.13;nan;102714.09;4940610;28;20043;-80
2021/10/09 04:16:13;;;;;;;19.17;10.30;;;;;;;2.02;nan;102719.59;4969678;28;20101;-79
2021/10/09 04:18:40;;;;;;;23.63;10.60;;;;;;;2.02;nan;102725.72;4948453;28;20046;-79
2021/10/09 04:21:07;;;;;;;22.63;10.70;;;;;;;2.03;nan;102719.69;4946744;28;20520;-80
2021/10/09 04:23:33;;;;;;;20.07;11.43;;;;;;;2.01;nan;102713.50;4979907;28;20073;-79
2021/10/09 04:26:00;;;;;;;16.80;10.00;;;;;;;1.99;nan;102720.34;4966293;28;20117;-79
2021/10/09 04:28:27;;;;;;;16.10;10.07;;;;;;;1.91;nan;102719.09;4978200;28;20077;-79
2021/10/09 04:30:53;;;;;;;16.87;10.77;;;;;;;1.98;nan;102729.00;4961388;28;20097;-79
2021/10/09 04:33:20;;;;;;;15.00;10.43;;;;;;;1.91;nan;102729.53;4982723;28;20053;-79
2021/10/09 04:35:48;;;;;;;17.13;8.80;;;;;;;1.89;nan;102733.78;4982309;28;20128;-80
2021/10/09 04:38:14;;;;;;;17.23;9.00;;;;;;;1.84;nan;102737.84;4966861;28;20041;-79
2021/10/09 04:40:41;;;;;;;16.17;9.60;;;;;;;1.79;nan;102736.75;4967234;28;20034;-79
2021/10/09 04:43:08;;;;;;;16.90;10.53;;;;;;;1.75;nan;102727.00;4966956;28;20082;-80
2021/10/09 04:45:35;;;;;;;17.80;9.50;;;;;;;1.74;nan;102731.31;4985448;28;20071;-79
2021/10/09 04:48:03;;;;;;;18.93;9.03;;;;;;;1.75;nan;102727.00;4955039;28;20046;-79
2021/10/09 04:50:31;;;;;;;20.13;10.87;;;;;;;1.57;nan;102724.38;4969454;28;20045;-79
2021/10/09 04:52:58;;;;;;;18.90;9.93;;;;;;;1.62;nan;102735.94;4984090;28;20617;-80
2021/10/09 04:55:25;;;;;;;15.70;9.37;;;;;;;1.59;nan;102718.41;4972810;28;20042;-80
2021/10/09 04:57:53;;;;;;;17.60;10.50;;;;;;;1.52;nan;102725.91;4962032;28;20031;-80
2021/10/09 05:00:21;;;;;;;18.80;10.60;;;;;;;1.53;nan;102722.47;4984645;28;20477;-79
2021/10/09 05:02:48;;;;;;;20.50;11.77;;;;;;;1.59;nan;102720.13;4987178;28;20034;-80
2021/10/09 05:05:14;;;;;;;24.50;11.37;;;;;;;1.56;nan;102723.50;4957287;28;20487;-80
2021/10/09 05:07:41;;;;;;;20.03;10.97;;;;;;;1.47;nan;102733.47;4967592;28;20294;-80
2021/10/09 05:10:09;;;;;;;19.63;10.63;;;;;;;1.51;nan;102732.78;4978702;28;20046;-79
2021/10/09 05:12:46;;;;;;;17.97;10.60;;;;;;;1.36;nan;102737.25;4969860;28;20418;-79
2021/10/09 05:15:13;;;;;;;18.97;10.40;;;;;;;1.41;nan;102734.03;4964918;28;20128;-79
2021/10/09 05:17:40;;;;;;;18.37;10.50;;;;;;;1.42;nan;102743.63;4941293;28;20053;-79
2021/10/09 05:20:07;;;;;;;17.83;11.00;;;;;;;1.28;nan;102746.38;4973712;28;20117;-79
2021/10/09 05:22:33;;;;;;;18.73;9.40;;;;;;;1.34;nan;102744.97;4957407;28;20085;-79
2021/10/09 05:25:02;;;;;;;16.43;10.17;;;;;;;1.30;nan;102750.84;4959275;28;20046;-79
2021/10/09 05:27:30;;;;;;;16.17;10.13;;;;;;;1.33;nan;102758.81;4959438;28;20113;-81
2021/10/09 05:30:03;;;;;;;22.27;9.97;;;;;;;1.38;nan;102759.94;4977328;28;20097;-83
2021/10/09 05:32:32;;;;;;;16.90;10.40;;;;;;;1.37;nan;102759.88;4963606;28;20270;-80
2021/10/09 05:34:59;;;;;;;18.40;10.27;;;;;;;1.33;nan;102766.63;4973723;28;20069;-80
2021/10/09 05:37:27;;;;;;;21.07;11.30;;;;;;;1.30;nan;102771.69;4955994;28;20047;-80
2021/10/09 05:39:53;;;;;;;21.30;10.37;;;;;;;1.17;nan;102774.47;4975906;28;20042;-80
2021/10/09 05:42:20;;;;;;;19.97;10.80;;;;;;;1.17;nan;102766.66;4944575;28;20053;-81
2021/10/09 05:44:47;;;;;;;17.70;9.77;;;;;;;1.16;nan;102777.88;4977738;28;20046;-80
2021/10/09 05:47:14;;;;;;;18.47;10.10;;;;;;;1.24;nan;102786.09;4960431;28;20141;-80
2021/10/09 05:49:40;;;;;;;21.70;11.10;;;;;;;1.23;nan;102774.78;4975920;28;20109;-80
2021/10/09 05:52:14;;;;;;;18.00;9.90;;;;;;;1.28;nan;102775.91;4953776;28;20507;-79
2021/10/09 05:54:47;;;;;;;20.27;10.68;;;;;;;1.25;nan;102778.34;4941386;28;20104;-79
2021/10/09 05:57:33;;;;;;;18.33;10.93;;;;;;;1.24;nan;102791.28;4957259;28;20055;-81
2021/10/09 06:00:14;;;;;;;17.80;10.57;;;;;;;1.30;nan;102789.91;4947014;28;20447;-79
2021/10/09 06:37:47;;;;;;;21.33;12.27;;;;;;;1.69;nan;102808.38;4990688;28;20046;-82
2021/10/09 06:59:51;;;;;;;21.73;12.10;;;;;;;2.42;nan;102817.16;4971741;28;20038;-80
2021/10/09 07:02:18;;;;;;;23.07;12.83;;;;;;;2.58;nan;102817.88;4972872;23;20058;-79
2021/10/09 07:04:45;;;;;;;21.23;12.67;;;;;;;2.65;nan;102820.84;4975520;28;21367;-79
2021/10/09 07:07:18;;;;;;;22.33;12.93;;;;;;;2.62;nan;102819.81;4973825;28;20685;-79
2021/10/09 07:09:44;;;;;;;20.13;12.57;;;;;;;2.81;nan;102825.94;4992671;28;20046;-79
2021/10/09 07:12:13;;;;;;;27.03;14.27;;;;;;;2.94;nan;102824.78;4972725;28;20086;-79
2021/10/09 07:14:41;;;;;;;21.10;12.53;;;;;;;2.87;nan;102832.28;4976846;28;20462;-79
2021/10/09 07:17:08;;;;;;;19.50;11.70;;;;;;;2.90;nan;102822.88;4956896;28;20057;-80
2021/10/09 07:19:35;;;;;;;20.07;12.30;;;;;;;3.01;nan;102833.78;4973805;28;20039;-79
2021/10/09 07:22:02;;;;;;;28.97;14.77;;;;;;;3.32;nan;102826.50;4987523;28;20085;-81
2021/10/09 07:24:49;;;;;;;24.37;13.17;;;;;;;3.38;nan;102818.94;4960949;28;20062;-79
2021/10/09 07:27:16;;;;;;;22.63;13.40;;;;;;;3.54;nan;102824.81;4960434;28;20105;-80
2021/10/09 07:29:43;;;;;;;20.07;12.27;;;;;;;3.61;nan;102825.13;4958005;28;20097;-79
2021/10/09 07:32:10;;;;;;;19.60;12.10;;;;;;;3.65;nan;102824.44;4975229;28;20039;-79
2021/10/09 07:34:38;;;;;;;19.17;12.73;;;;;;;3.72;nan;102824.72;4999829;28;20069;-80
2021/10/09 07:37:05;;;;;;;24.93;13.97;;;;;;;3.91;nan;102825.53;4974251;28;20078;-79
2021/10/09 07:39:33;;;;;;;19.67;12.50;;;;;;;3.99;nan;102838.03;4944361;28;20074;-79
2021/10/09 07:42:00;;;;;;;22.27;13.17;;;;;;;4.12;nan;102837.69;4971895;28;20065;-80
2021/10/09 07:44:27;;;;;;;19.13;11.97;;;;;;;4.36;nan;102827.31;4960713;28;20635;-80
2021/10/09 07:46:54;;;;;;;17.30;11.50;;;;;;;4.39;nan;102838.81;4975868;28;20144;-79
2021/10/09 07:49:21;;;;;;;23.23;12.70;;;;;;;4.52;nan;102824.47;4973525;28;20070;-79
2021/10/09 07:51:48;;;;;;;20.30;11.60;;;;;;;4.49;nan;102829.59;4973563;28;20062;-78
2021/10/09 07:54:15;;;;;;;21.10;10.43;;;;;;;4.70;nan;102829.53;4977331;28;20503;-78
2021/10/09 07:56:42;;;;;;;20.00;12.13;;;;;;;4.82;nan;102835.25;4993430;28;20248;-77
2021/10/09 07:59:09;;;;;;;19.63;12.20;;;;;;;4.99;nan;102834.16;4975879;28;20046;-78
2021/10/09 08:01:36;;;;;;;17.43;10.57;;;;;;;5.05;nan;102836.09;4976280;28;20577;-78
2021/10/09 08:04:03;;;;;;;21.97;11.13;;;;;;;5.32;nan;102834.47;4974761;28;20042;-78
2021/10/09 08:06:30;;;;;;;16.93;10.23;;;;;;;5.47;nan;102836.75;4971768;28;20045;-78
2021/10/09 08:08:56;;;;;;;17.23;10.93;;;;;;;5.44;nan;102841.88;4935215;28;20053;-78
2021/10/09 08:11:25;;;;;;;20.17;10.73;;;;;;;5.55;nan;102839.63;4959294;28;20043;-78
2021/10/09 08:13:52;;;;;;;20.20;10.90;;;;;;;5.84;nan;102845.88;4989489;28;20050;-79
2021/10/09 08:16:18;;;;;;;15.50;9.50;;;;;;;5.95;nan;102839.28;4974275;28;20038;-80
2021/10/09 08:18:45;;;;;;;19.70;10.13;;;;;;;5.87;nan;102832.88;4965961;28;20111;-79
2021/10/09 08:21:13;;;;;;;20.93;10.90;;;;;;;5.92;nan;102841.81;4945538;28;20156;-78
2021/10/09 08:40:26;;;;;;;17.50;9.43;;;;;;;6.98;nan;102831.16;4957827;28;20046;-79
2021/10/09 08:42:53;;;;;;;14.83;9.53;;;;;;;7.12;nan;102834.16;4967286;28;20045;-79
2021/10/09 08:45:20;;;;;;;12.67;8.40;;;;;;;7.05;nan;102827.84;4986207;28;20409;-79
2021/10/09 08:47:48;;;;;;;17.17;9.43;;;;;;;7.24;nan;102831.91;4937174;28;20129;-80
2021/10/09 08:50:15;;;;;;;18.67;9.40;;;;;;;7.26;nan;102827.56;4991366;28;20039;-79
2021/10/09 08:53:09;;;;;;;12.60;8.37;;;;;;;7.54;nan;102826.56;4944331;28;20046;-80
2021/10/09 08:55:37;;;;;;;14.17;8.73;;;;;;;7.62;nan;102834.66;4970660;28;20050;-79
2021/10/09 08:58:09;;;;;;;15.37;8.80;;;;;;;8.22;nan;102823.00;4941834;28;20042;-79
2021/10/09 09:00:49;;;;;;;12.80;8.37;;;;;;;8.39;nan;102822.56;4979767;28;20085;-79
2021/10/09 09:03:19;;;;;;;13.70;7.80;;;;;;;8.41;nan;102826.16;4954131;28;20042;-79
2021/10/09 09:08:51;;;;;;;13.52;8.40;;;;;;;9.11;nan;102820.63;4973745;28;20075;-79
2021/10/09 09:25:55;;;;;;;10.40;6.53;;;;;;;10.58;nan;102809.06;5002582;28;20084;-78
2021/10/09 09:41:14;;;;;;;11.00;6.60;;;;;;;11.45;nan;102803.94;4970271;28;20066;-79
2021/10/09 09:43:42;;;;;;;9.38;6.88;;;;;;;11.40;nan;102795.94;4955066;28;20582;-80
2021/10/09 09:46:10;;;;;;;8.32;6.47;;;;;;;11.56;nan;102797.00;4968312;28;20073;-80
2021/10/09 09:48:37;;;;;;;10.73;6.57;;;;;;;11.49;nan;102800.44;4970491;28;20073;-80
2021/10/09 09:51:05;;;;;;;10.02;6.70;;;;;;;11.71;nan;102786.56;4944275;28;20104;-79
2021/10/09 09:53:33;;;;;;;10.50;7.40;;;;;;;11.91;nan;102796.44;4971645;28;20042;-79
2021/10/09 09:56:00;;;;;;;11.50;6.80;;;;;;;12.07;nan;102791.28;4969466;28;20104;-80
2021/10/09 09:58:28;;;;;;;10.13;5.45;;;;;;;12.22;nan;102789.63;4940190;28;20039;-80
2021/10/09 10:00:57;;;;;;;11.30;6.60;;;;;;;12.06;nan;102794.81;4969762;28;20562;-79
2021/10/09 10:03:24;;;;;;;10.85;6.80;;;;;;;12.20;nan;102792.28;4951185;28;20045;-80
2021/10/09 10:05:51;;;;;;;9.45;6.80;;;;;;;12.43;nan;102788.84;4951223;28;20057;-80
2021/10/09 10:08:20;;;;;;;9.35;5.68;;;;;;;12.66;nan;102782.81;4969547;28;20043;-79
2021/10/09 10:10:51;;;;;;;10.93;6.03;;;;;;;12.86;nan;102784.66;4969346;28;20038;-80
2021/10/09 10:13:18;;;;;;;8.40;6.43;;;;;;;12.91;nan;102786.44;4952562;28;20050;-80
2021/10/09 10:15:45;;;;;;;9.10;5.43;;;;;;;12.83;nan;102777.56;4949895;28;20042;-81
2021/10/09 10:18:13;;;;;;;12.75;5.80;;;;;;;12.88;nan;102778.50;4948636;28;20685;-79
2021/10/09 10:20:49;;;;;;;10.60;5.50;;;;;;;13.01;nan;102783.81;4965400;28;20420;-81
2021/10/09 10:23:36;;;;;;;9.10;6.32;;;;;;;13.02;nan;102767.03;4949118;28;20038;-80
2021/10/09 10:26:28;;;;;;;7.93;5.63;;;;;;;13.10;nan;102781.19;4976080;28;20429;-79
2021/10/09 10:28:54;;;;;;;7.57;5.50;;;;;;;12.96;nan;102778.53;4964934;28;20042;-78
2021/10/09 10:31:22;;;;;;;8.18;5.40;;;;;;;13.04;nan;102774.13;4987386;28;20088;-78
2021/10/09 10:34:00;;;;;;;8.93;4.80;;;;;;;13.14;nan;102772.38;4956772;28;20101;-78
2021/10/09 10:36:44;;;;;;;7.95;6.38;;;;;;;13.29;nan;102777.75;4969153;28;20047;-78
2021/10/09 10:39:14;;;;;;;8.02;5.05;;;;;;;13.35;nan;102774.22;4951321;28;20061;-78
2021/10/09 10:41:44;;;;;;;7.40;5.60;;;;;;;13.43;nan;102765.38;4955934;28;20747;-79
2021/10/09 10:44:44;;;;;;;9.77;5.68;;;;;;;13.53;nan;102759.19;4960333;28;20093;-78
2021/10/09 10:47:50;;;;;;;7.28;5.22;;;;;;;13.62;nan;102768.03;4968967;28;20030;-79
2021/10/09 10:50:47;;;;;;;12.95;5.40;;;;;;;13.65;nan;102766.28;4984875;28;20085;-78
2021/10/09 10:53:29;;;;;;;7.65;4.57;;;;;;;13.80;nan;102762.75;4970316;28;20038;-80
2021/10/09 10:56:10;;;;;;;9.57;5.22;;;;;;;13.86;nan;102762.72;4949301;28;20073;-78
2021/10/09 10:58:37;;;;;;;7.15;4.70;;;;;;;13.79;nan;102753.91;4963215;28;20066;-79
2021/10/09 11:01:19;;;;;;;8.98;5.00;;;;;;;13.76;nan;102751.22;4980994;28;20066;-78
2021/10/09 11:04:05;;;;;;;8.57;4.70;;;;;;;13.90;nan;102753.00;4966654;28;20048;-81
2021/10/09 11:06:32;;;;;;;7.10;4.85;;;;;;;13.92;nan;102749.44;4957732;28;20050;-79
2021/10/09 11:08:58;;;;;;;8.07;4.75;;;;;;;14.01;nan;102745.91;4968888;28;20057;-79
2021/10/09 11:11:37;;;;;;;7.40;4.70;;;;;;;13.98;nan;102745.91;4957469;28;20104;-78
2021/10/09 11:14:05;;;;;;;7.32;4.68;;;;;;;13.94;nan;102746.78;4969651;28;20447;-78
2021/10/09 11:16:31;;;;;;;7.30;4.50;;;;;;;14.07;nan;102736.16;4943101;28;20051;-78
2021/10/09 11:18:58;;;;;;;6.07;4.40;;;;;;;14.03;nan;102749.44;4967096;28;20078;-79
2021/10/09 11:21:26;;;;;;;6.75;4.68;;;;;;;13.94;nan;102739.69;4973386;28;20034;-79
2021/10/09 11:23:56;;;;;;;7.82;4.20;;;;;;;14.00;nan;102741.47;4930592;28;20400;-79
2021/10/09 11:26:25;;;;;;;6.20;4.18;;;;;;;13.94;nan;102744.13;4973309;28;20034;-79
2021/10/09 11:29:08;;;;;;;7.05;4.90;;;;;;;14.30;nan;102732.56;4966977;28;20042;-79
2021/10/09 11:31:35;;;;;;;8.53;5.97;;;;;;;14.39;nan;102743.16;4942642;28;20038;-79
2021/10/09 11:34:02;;;;;;;12.00;5.97;;;;;;;14.15;nan;102732.59;4952492;28;20523;-80
2021/10/09 11:36:36;;;;;;;8.73;5.68;;;;;;;14.39;nan;102729.88;4950004;28;20039;-80
2021/10/09 11:39:11;;;;;;;;;;;;;;;14.20;nan;102739.66;4958356;28;20133;-79
2021/10/09 11:41:40;;;;;;;6.93;5.30;;;;;;;14.41;nan;102743.16;4969608;28;19953;-79
2021/10/09 11:44:27;;;;;;;10.32;4.90;;;;;;;14.39;nan;102735.19;4953460;28;20039;-78
2021/10/09 11:55:22;;;;;;;6.80;5.05;;;;;;;14.15;nan;102721.97;4967310;28;20388;-79
2021/10/09 11:57:49;;;;;;;9.77;5.28;;;;;;;14.32;nan;102726.34;4953731;28;20071;-77
2021/10/09 12:00:33;;;;;;;8.95;5.72;;;;;;;14.58;nan;102717.41;4978592;28;20126;-79
2021/10/09 12:03:21;;;;;;;8.13;4.95;;;;;;;14.51;nan;102726.31;4964255;28;20113;-80
2021/10/09 12:05:56;;;;;;;6.10;4.72;;;;;;;14.38;nan;102725.44;4969870;28;20038;-81
2021/10/09 12:08:27;;;;;;;6.72;4.45;;;;;;;14.43;nan;102714.78;4964934;28;20082;-80
2021/10/09 12:11:12;;;;;;;8.15;4.85;;;;;;;14.61;nan;102718.28;4955621;28;20058;-80
2021/10/09 12:13:59;;;;;;;5.55;4.50;;;;;;;14.67;nan;102717.38;4957657;28;20078;-80
2021/10/09 12:16:49;;;;;;;9.95;4.50;;;;;;;14.76;nan;102705.78;4953436;28;20046;-81
2021/10/09 12:19:25;;;;;;;7.70;4.20;;;;;;;14.85;nan;102713.72;4967085;28;20085;-81
2021/10/09 12:21:52;;;;;;;7.53;4.20;;;;;;;14.92;nan;102712.81;4938587;28;20044;-81
2021/10/09 12:24:27;;;;;;;7.60;4.47;;;;;;;14.95;nan;102706.56;4965901;28;20043;-80
2021/10/09 12:27:03;;;;;;;6.45;3.95;;;;;;;15.01;nan;102706.53;4974470;28;20495;-81
2021/10/09 12:29:33;;;;;;;7.13;4.05;;;;;;;15.01;nan;102699.44;4968288;28;20097;-81
2021/10/09 12:32:19;;;;;;;7.15;4.10;;;;;;;14.94;nan;102703.03;4939302;28;20038;-81
2021/10/09 12:34:47;;;;;;;7.68;4.82;;;;;;;15.03;nan;102694.97;4971720;28;20054;-80
2021/10/09 12:37:19;;;;;;;5.68;3.97;;;;;;;15.12;nan;102702.91;4951706;28;20057;-81
2021/10/09 12:40:05;;;;;;;8.30;5.00;;;;;;;15.02;nan;102697.66;4955328;28;20073;-80
2021/10/09 12:42:32;;;;;;;8.60;4.80;;;;;;;15.07;nan;102691.41;4967506;28;20041;-80
2021/10/09 12:45:00;;;;;;;8.00;4.07;;;;;;;15.01;nan;102688.78;4969709;28;20046;-81
2021/10/09 12:47:46;;;;;;;9.38;4.05;;;;;;;14.95;nan;102680.84;4970466;28;20569;-80
2021/10/09 12:50:13;;;;;;;5.88;3.80;;;;;;;14.87;nan;102683.53;4983013;28;20058;-80
2021/10/09 12:52:40;;;;;;;7.30;3.80;;;;;;;14.96;nan;102681.72;4970591;28;20042;-80
2021/10/09 12:55:07;;;;;;;5.32;4.18;;;;;;;14.80;nan;102681.84;4940568;28;20126;-79
2021/10/09 12:57:35;;;;;;;7.63;3.78;;;;;;;14.82;nan;102682.69;4972782;28;20292;-81
2021/10/09 13:00:03;;;;;;;6.45;3.90;;;;;;;14.63;nan;102679.28;4965427;28;20044;-80
2021/10/09 13:02:29;;;;;;;5.18;3.63;;;;;;;14.60;nan;102676.59;4970869;28;20042;-81
2021/10/09 13:04:56;;;;;;;7.60;4.25;;;;;;;14.54;nan;102676.63;4955802;28;20046;-80
2021/10/09 13:07:23;;;;;;;5.45;4.00;;;;;;;14.61;nan;102674.81;4957343;28;20042;-82
2021/10/09 13:09:52;;;;;;;6.90;3.85;;;;;;;14.73;nan;102682.75;4977591;28;20042;-83
2021/10/09 13:12:20;;;;;;;5.07;3.58;;;;;;;14.69;nan;102672.13;4958873;28;20046;-81
2021/10/09 13:14:47;;;;;;;5.75;4.00;;;;;;;14.69;nan;102666.81;4954789;28;20042;-80
2021/10/09 13:17:13;;;;;;;6.05;4.80;;;;;;;14.68;nan;102665.94;4986056;28;20111;-83
2021/10/09 13:19:41;;;;;;;8.77;4.40;;;;;;;14.62;nan;102661.50;4953597;28;20630;-80
2021/10/09 13:22:07;;;;;;;10.23;5.07;;;;;;;14.56;nan;102661.56;4979346;28;20058;-80
2021/10/09 13:24:35;;;;;;;25.65;20.90;;;;;;;14.45;nan;102658.06;4959419;28;20050;-82
2021/10/09 13:27:01;;;;;;;10.93;6.22;;;;;;;14.46;nan;102654.53;4952581;28;20610;-82
2021/10/09 13:29:29;;;;;;;17.10;10.93;;;;;;;14.60;nan;102647.34;4954426;28;20049;-82
2021/10/09 13:31:56;;;;;;;8.18;6.18;;;;;;;14.63;nan;102652.66;4969620;28;20621;-81
2021/10/09 13:34:24;;;;;;;6.03;3.92;;;;;;;14.75;nan;102640.16;4966273;28;20066;-81
2021/10/09 13:36:51;;;;;;;6.30;4.45;;;;;;;14.73;nan;102644.63;4956043;28;20496;-81
2021/10/09 13:39:18;;;;;;;7.07;5.63;;;;;;;14.55;nan;102641.19;4981372;28;20030;-80
2021/10/09 13:41:45;;;;;;;7.72;4.38;;;;;;;14.49;nan;102633.22;4992560;28;20073;-82
2021/10/09 13:44:12;;;;;;;6.80;4.78;;;;;;;14.47;nan;102635.03;4950817;28;20136;-80
2021/10/09 13:46:39;;;;;;;5.95;4.30;;;;;;;14.38;nan;102624.41;4967936;28;20074;-81
2021/10/09 13:49:06;;;;;;;8.10;5.15;;;;;;;14.58;nan;102635.84;4965056;28;20050;-80
2021/10/09 13:51:33;;;;;;;7.88;4.45;;;;;;;14.51;nan;102634.09;4987490;28;20062;-81
2021/10/09 13:54:00;;;;;;;6.30;4.18;;;;;;;14.54;nan;102636.72;4953063;28;20058;-80
2021/10/09 13:56:27;;;;;;;5.60;3.67;;;;;;;14.56;nan;102629.66;4972533;28;20069;-82